createdAt,value
2022-08-07T00:00:04.134Z,45.45
2022-08-07T00:00:20.822Z,45.48
2022-08-07T00:00:36.573Z,45.47
2022-08-07T00:00:53.407Z,45.47
2022-08-07T00:01:43.559Z,45.45
2022-08-07T00:01:44.394Z,45.47
2022-08-07T00:02:36.381Z,45.45
2022-08-07T00:02:36.731Z,45.47
2022-08-07T00:02:36.786Z,45.47
2022-08-07T00:02:40.525Z,45.47
2022-08-07T00:02:45.228Z,45.47
2022-08-07T00:03:00.804Z,45.47
2022-08-07T00:03:21.361Z,45.47
2022-08-07T00:03:36.877Z,45.47
2022-08-07T00:03:49.065Z,45.47
2022-08-07T00:04:04.177Z,45.45
2022-08-07T00:04:24.412Z,45.48
2022-08-07T00:04:36.996Z,45.47
2022-08-07T00:04:53.713Z,45.47
2022-08-07T00:05:08.650Z,45.45
2022-08-07T00:05:24.272Z,45.46
2022-08-07T00:05:40.520Z,45.47
2022-08-07T00:05:56.704Z,45.46
2022-08-07T00:06:13.865Z,45.46
2022-08-07T00:06:29.538Z,45.48
2022-08-07T00:06:51.366Z,45.48
2022-08-07T00:07:01.511Z,45.47
2022-08-07T00:07:17.811Z,45.47
2022-08-07T00:07:40.518Z,45.48
2022-08-07T00:07:48.233Z,45.48
2022-08-07T00:08:04.709Z,45.47
2022-08-07T00:08:20.306Z,45.48
2022-08-07T00:08:51.938Z,45.47
2022-08-07T00:09:16.296Z,45.47
2022-08-07T00:09:34.271Z,45.46
2022-08-07T00:09:44.506Z,45.45
2022-08-07T00:10:19.322Z,45.47
2022-08-07T00:10:25.843Z,45.45
2022-08-07T00:10:29.704Z,45.48
2022-08-07T00:10:47.950Z,45.47
2022-08-07T00:11:00.955Z,45.47
2022-08-07T00:11:20.064Z,45.48
2022-08-07T00:11:33.358Z,45.47
2022-08-07T00:11:56.044Z,45.48
2022-08-07T00:12:05.107Z,45.47
2022-08-07T00:12:20.527Z,45.47
2022-08-07T00:12:35.607Z,45.49
2022-08-07T00:13:00.762Z,45.48
2022-08-07T00:13:23.749Z,45.45
2022-08-07T00:13:26.749Z,45.47
2022-08-07T00:13:44.739Z,45.47
2022-08-07T00:13:56.955Z,45.48
2022-08-07T00:14:14.948Z,45.47
2022-08-07T00:14:29.807Z,45.45
2022-08-07T00:14:44.978Z,45.45
2022-08-07T00:15:01.148Z,45.46
2022-08-07T00:15:16.604Z,45.48
2022-08-07T00:15:36.184Z,45.46
2022-08-07T00:15:50.829Z,45.47
2022-08-07T00:16:04.214Z,45.48
2022-08-07T00:16:21.604Z,45.48
2022-08-07T00:16:36.337Z,45.48
2022-08-07T00:16:52.944Z,45.47
2022-08-07T00:17:08.558Z,45.48
2022-08-07T00:17:25.160Z,45.46
2022-08-07T00:17:41.608Z,45.46
2022-08-07T00:17:56.363Z,45.48
2022-08-07T00:18:19.513Z,45.47
2022-08-07T00:18:28.573Z,45.48
2022-08-07T00:18:44.842Z,45.46
2022-08-07T00:19:00.076Z,45.48
2022-08-07T00:19:21.554Z,45.49
2022-08-07T00:19:58.716Z,45.48
2022-08-07T00:20:00.978Z,45.49
2022-08-07T00:20:05.578Z,45.47
2022-08-07T00:20:29.847Z,45.48
2022-08-07T00:20:37.760Z,45.47
2022-08-07T00:20:52.125Z,45.48
2022-08-07T00:21:56.269Z,45.49
2022-08-07T00:21:56.421Z,45.47
2022-08-07T00:21:56.705Z,45.49
2022-08-07T00:22:01.858Z,45.48
2022-08-07T00:22:12.792Z,45.48
2022-08-07T00:22:35.511Z,45.49
2022-08-07T00:22:51.766Z,45.49
2022-08-07T00:23:00.095Z,45.48
2022-08-07T00:23:16.965Z,45.48
2022-08-07T00:23:32.869Z,45.48
2022-08-07T00:23:47.832Z,45.47
2022-08-07T00:24:05.214Z,45.5
2022-08-07T00:24:20.409Z,45.49
2022-08-07T00:24:38.541Z,45.49
2022-08-07T00:24:52.750Z,45.49
2022-08-07T00:25:11.157Z,45.49
2022-08-07T00:25:28.363Z,45.48
2022-08-07T00:25:41.699Z,45.49
2022-08-07T00:26:02.784Z,45.47
2022-08-07T00:26:18.797Z,45.48
2022-08-07T00:26:48.645Z,45.48
2022-08-07T00:26:58.667Z,45.49
2022-08-07T00:27:07.148Z,45.49
2022-08-07T00:27:16.493Z,45.48
2022-08-07T00:27:51.852Z,45.49
2022-08-07T00:27:53.749Z,45.48
2022-08-07T00:28:04.673Z,45.47
2022-08-07T00:28:22.083Z,45.49
2022-08-07T00:28:46.158Z,45.49
2022-08-07T00:28:56.747Z,45.49
2022-08-07T00:29:08.023Z,45.49
2022-08-07T00:29:24.223Z,45.5
2022-08-07T00:29:40.518Z,45.51
2022-08-07T00:29:56.339Z,45.49
2022-08-07T00:30:26.414Z,45.48
2022-08-07T00:30:29.108Z,45.49
2022-08-07T00:30:45.448Z,45.47
2022-08-07T00:31:01.257Z,45.49
2022-08-07T00:31:17.748Z,45.49
2022-08-07T00:31:37.891Z,45.49
2022-08-07T00:31:49.218Z,45.49
2022-08-07T00:32:04.316Z,45.49
2022-08-07T00:32:28.375Z,45.49
2022-08-07T00:32:37.074Z,45.51
2022-08-07T00:32:53.020Z,45.5
2022-08-07T00:33:08.201Z,45.5
2022-08-07T00:33:25.126Z,45.49
2022-08-07T00:33:40.255Z,45.49
2022-08-07T00:33:57.593Z,45.49
2022-08-07T00:34:12.780Z,45.49
2022-08-07T00:34:28.108Z,45.49
2022-08-07T00:34:44.322Z,45.49
2022-08-07T00:35:01.631Z,45.49
2022-08-07T00:35:16.728Z,45.48
2022-08-07T00:35:32.454Z,45.49
2022-08-07T00:35:49.676Z,45.51
2022-08-07T00:36:04.694Z,45.51
2022-08-07T00:36:23.163Z,45.49
2022-08-07T00:36:36.231Z,45.5
2022-08-07T00:36:52.689Z,45.49
2022-08-07T00:37:08.299Z,45.49
2022-08-07T00:37:23.701Z,45.48
2022-08-07T00:37:47.627Z,45.48
2022-08-07T00:37:55.738Z,45.49
2022-08-07T00:38:13.118Z,45.5
2022-08-07T00:38:31.141Z,45.49
2022-08-07T00:38:44.920Z,45.51
2022-08-07T00:39:00.044Z,45.49
2022-08-07T00:39:17.365Z,45.49
2022-08-07T00:39:32.693Z,45.5
2022-08-07T00:39:54.505Z,45.5
2022-08-07T00:40:04.674Z,45.49
2022-08-07T00:40:38.987Z,45.49
2022-08-07T00:40:39.320Z,45.49
2022-08-07T00:40:52.660Z,45.48
2022-08-07T00:41:14.392Z,45.5
2022-08-07T00:41:24.203Z,45.51
2022-08-07T00:41:53.027Z,45.51
2022-08-07T00:42:04.750Z,45.5
2022-08-07T00:42:13.067Z,45.49
2022-08-07T00:42:29.288Z,45.49
2022-08-07T00:42:45.718Z,45.49
2022-08-07T00:43:00.616Z,45.49
2022-08-07T00:44:00.916Z,45.49
2022-08-07T00:44:01.684Z,45.51
2022-08-07T00:44:01.847Z,45.48
2022-08-07T00:44:04.762Z,45.48
2022-08-07T00:44:20.739Z,45.51
2022-08-07T00:44:38.207Z,45.49
2022-08-07T00:44:52.164Z,45.5
2022-08-07T00:45:07.615Z,45.49
2022-08-07T00:45:25.801Z,45.5
2022-08-07T00:45:40.212Z,45.49
2022-08-07T00:45:56.982Z,45.49
2022-08-07T00:46:11.690Z,45.49
2022-08-07T00:46:29.128Z,45.51
2022-08-07T00:46:47.057Z,45.5
2022-08-07T00:47:00.988Z,45.52
2022-08-07T00:48:08.259Z,45.5
2022-08-07T00:48:08.930Z,45.51
2022-08-07T00:48:09.096Z,45.5
2022-08-07T00:48:18.220Z,45.51
2022-08-07T00:48:31.062Z,45.51
2022-08-07T00:48:35.760Z,45.51
2022-08-07T00:48:53.827Z,45.51
2022-08-07T00:49:09.789Z,45.51
2022-08-07T00:49:24.832Z,45.48
2022-08-07T00:50:19.781Z,45.5
2022-08-07T00:50:20.314Z,45.49
2022-08-07T00:50:20.737Z,45.52
2022-08-07T00:50:46.236Z,45.5
2022-08-07T00:50:51.050Z,45.49
2022-08-07T00:51:00.362Z,45.5
2022-08-07T00:51:17.094Z,45.5
2022-08-07T00:51:57.098Z,45.51
2022-08-07T00:51:57.660Z,45.49
2022-08-07T00:52:04.074Z,45.52
2022-08-07T00:52:21.382Z,45.51
2022-08-07T00:52:36.726Z,45.51
2022-08-07T00:52:53.052Z,45.48
2022-08-07T00:53:09.160Z,45.5
2022-08-07T00:53:23.722Z,45.53
2022-08-07T00:53:50.811Z,45.51
2022-08-07T00:53:57.074Z,45.49
2022-08-07T00:54:12.359Z,45.51
2022-08-07T00:54:28.535Z,45.51
2022-08-07T00:54:45.096Z,45.5
2022-08-07T00:55:04.964Z,45.5
2022-08-07T00:55:25.580Z,45.52
2022-08-07T00:56:02.600Z,45.5
2022-08-07T00:56:03.301Z,45.49
2022-08-07T00:56:13.898Z,45.51
2022-08-07T00:56:19.454Z,45.49
2022-08-07T00:56:36.249Z,45.5
2022-08-07T00:56:53.333Z,45.51
2022-08-07T00:57:08.887Z,45.49
2022-08-07T00:57:25.791Z,45.5
2022-08-07T00:57:44.443Z,45.49
2022-08-07T00:57:56.617Z,45.5
2022-08-07T00:58:12.704Z,45.5
2022-08-07T00:58:30.708Z,45.5
2022-08-07T00:58:46.953Z,45.51
2022-08-07T00:59:02.108Z,45.51
2022-08-07T00:59:16.972Z,45.5
2022-08-07T00:59:36.051Z,45.51
2022-08-07T00:59:47.794Z,45.51
2022-08-07T01:00:04.756Z,45.51
2022-08-07T01:00:19.805Z,45.5
2022-08-07T01:00:36.526Z,45.5
2022-08-07T01:00:53.906Z,45.49
2022-08-07T01:01:08.816Z,45.5
2022-08-07T01:01:25.566Z,45.49
2022-08-07T01:01:44.248Z,45.51
2022-08-07T01:01:57.817Z,45.5
2022-08-07T01:02:14.083Z,45.5
2022-08-07T01:02:29.555Z,45.49
2022-08-07T01:02:43.789Z,45.5
2022-08-07T01:03:01.183Z,45.49
2022-08-07T01:03:16.009Z,45.51
2022-08-07T01:03:55.449Z,45.5
2022-08-07T01:03:56.150Z,45.51
2022-08-07T01:04:04.149Z,45.51
2022-08-07T01:04:24.690Z,45.5
2022-08-07T01:04:42.951Z,45.51
2022-08-07T01:04:52.450Z,45.51
2022-08-07T01:05:18.854Z,45.5
2022-08-07T01:05:26.328Z,45.51
2022-08-07T01:05:41.071Z,45.5
2022-08-07T01:05:57.081Z,45.53
2022-08-07T01:06:12.599Z,45.51
2022-08-07T01:06:29.291Z,45.52
2022-08-07T01:06:44.588Z,45.51
2022-08-07T01:07:00.126Z,45.49
2022-08-07T01:07:16.927Z,45.51
2022-08-07T01:07:32.119Z,45.51
2022-08-07T01:07:49.155Z,45.51
2022-08-07T01:08:04.074Z,45.52
2022-08-07T01:08:20.752Z,45.52
2022-08-07T01:08:35.871Z,45.51
2022-08-07T01:08:55.699Z,45.5
2022-08-07T01:09:08.400Z,45.52
2022-08-07T01:10:03.971Z,45.5
2022-08-07T01:10:04.635Z,45.51
2022-08-07T01:10:07.012Z,45.5
2022-08-07T01:10:12.721Z,45.51
2022-08-07T01:10:27.957Z,45.52
2022-08-07T01:10:54.306Z,45.5
2022-08-07T01:11:00.753Z,45.51
2022-08-07T01:12:04.564Z,45.5
2022-08-07T01:12:10.078Z,45.51
2022-08-07T01:12:24.006Z,45.51
2022-08-07T01:12:28.537Z,45.51
2022-08-07T01:12:28.598Z,45.51
2022-08-07T01:12:36.113Z,45.49
2022-08-07T01:12:53.923Z,45.5
2022-08-07T01:13:08.868Z,45.49
2022-08-07T01:13:24.530Z,45.51
2022-08-07T01:13:40.991Z,45.53
2022-08-07T01:13:56.465Z,45.52
2022-08-07T01:14:16.713Z,45.52
2022-08-07T01:14:29.005Z,45.5
2022-08-07T01:14:45.187Z,45.51
2022-08-07T01:15:01.118Z,45.52
2022-08-07T01:15:17.708Z,45.51
2022-08-07T01:16:01.200Z,45.53
2022-08-07T01:16:05.215Z,45.5
2022-08-07T01:16:05.870Z,45.52
2022-08-07T01:16:30.540Z,45.51
2022-08-07T01:16:37.227Z,45.52
2022-08-07T01:16:51.704Z,45.51
2022-08-07T01:17:08.983Z,45.53
2022-08-07T01:17:24.809Z,45.53
2022-08-07T01:17:40.083Z,45.53
2022-08-07T01:18:00.111Z,45.53
2022-08-07T01:18:16.864Z,45.52
2022-08-07T01:18:28.884Z,45.51
2022-08-07T01:18:43.899Z,45.53
2022-08-07T01:19:00.248Z,45.51
2022-08-07T01:19:19.231Z,45.53
2022-08-07T01:19:32.955Z,45.51
2022-08-07T01:19:54.438Z,45.54
2022-08-07T01:20:04.560Z,45.51
2022-08-07T01:20:20.262Z,45.55
2022-08-07T01:20:35.288Z,45.53
2022-08-07T01:20:57.368Z,45.53
2022-08-07T01:21:17.487Z,45.52
2022-08-07T01:21:26.100Z,45.53
2022-08-07T01:21:41.719Z,45.51
2022-08-07T01:21:56.988Z,45.53
2022-08-07T01:22:16.208Z,45.51
2022-08-07T01:22:29.701Z,45.52
2022-08-07T01:22:54.139Z,45.54
2022-08-07T01:23:12.162Z,45.55
2022-08-07T01:23:16.619Z,45.54
2022-08-07T01:23:38.581Z,45.55
2022-08-07T01:23:48.523Z,45.53
2022-08-07T01:24:05.679Z,45.53
2022-08-07T01:24:21.659Z,45.53
2022-08-07T01:24:36.418Z,45.52
2022-08-07T01:24:52.485Z,45.51
2022-08-07T01:25:40.318Z,45.53
2022-08-07T01:25:54.613Z,45.54
2022-08-07T01:25:55.522Z,45.52
2022-08-07T01:25:56.543Z,45.52
2022-08-07T01:26:12.592Z,45.51
2022-08-07T01:26:27.465Z,45.51
2022-08-07T01:26:45.045Z,45.52
2022-08-07T01:27:00.413Z,45.5
2022-08-07T01:27:19.348Z,45.53
2022-08-07T01:27:32.426Z,45.53
2022-08-07T01:27:51.395Z,45.53
2022-08-07T01:28:04.019Z,45.52
2022-08-07T01:28:20.571Z,45.53
2022-08-07T01:28:36.129Z,45.52
2022-08-07T01:28:53.352Z,45.55
2022-08-07T01:29:08.668Z,45.53
2022-08-07T01:29:24.184Z,45.53
2022-08-07T01:29:40.580Z,45.54
2022-08-07T01:29:57.226Z,45.52
2022-08-07T01:30:12.611Z,45.53
2022-08-07T01:30:28.653Z,45.52
2022-08-07T01:30:45.251Z,45.54
2022-08-07T01:31:00.405Z,45.51
2022-08-07T01:31:17.729Z,45.54
2022-08-07T01:31:42.392Z,45.53
2022-08-07T01:31:50.464Z,45.53
2022-08-07T01:32:05.458Z,45.55
2022-08-07T01:32:19.752Z,45.54
2022-08-07T01:32:36.787Z,45.53
2022-08-07T01:32:51.601Z,45.53
2022-08-07T01:33:08.295Z,45.52
2022-08-07T01:33:23.997Z,45.53
2022-08-07T01:33:55.522Z,45.55
2022-08-07T01:33:57.599Z,45.53
2022-08-07T01:34:12.591Z,45.54
2022-08-07T01:34:30.909Z,45.53
2022-08-07T01:34:43.605Z,45.54
2022-08-07T01:35:00.896Z,45.55
2022-08-07T01:35:17.269Z,45.54
2022-08-07T01:35:52.748Z,45.54
2022-08-07T01:35:53.220Z,45.51
2022-08-07T01:36:06.463Z,45.55
2022-08-07T01:36:20.083Z,45.52
2022-08-07T01:36:36.473Z,45.54
2022-08-07T01:36:58.091Z,45.53
2022-08-07T01:37:09.568Z,45.53
2022-08-07T01:37:24.818Z,45.53
2022-08-07T01:37:39.872Z,45.52
2022-08-07T01:37:56.665Z,45.53
2022-08-07T01:38:12.181Z,45.53
2022-08-07T01:38:29.845Z,45.55
2022-08-07T01:38:43.684Z,45.53
2022-08-07T01:39:00.605Z,45.54
2022-08-07T01:39:16.514Z,45.55
2022-08-07T01:39:40.643Z,45.54
2022-08-07T01:39:48.352Z,45.53
2022-08-07T01:40:04.398Z,45.55
2022-08-07T01:40:20.322Z,45.55
2022-08-07T01:40:35.999Z,45.54
2022-08-07T01:40:52.989Z,45.55
2022-08-07T01:41:07.864Z,45.54
2022-08-07T01:41:26.018Z,45.55
2022-08-07T01:41:40.836Z,45.53
2022-08-07T01:42:37.842Z,45.55
2022-08-07T01:42:38.556Z,45.53
2022-08-07T01:42:38.597Z,45.51
2022-08-07T01:42:55.107Z,45.54
2022-08-07T01:43:01.258Z,45.54
2022-08-07T01:43:16.575Z,45.53
2022-08-07T01:43:34.533Z,45.53
2022-08-07T01:43:49.079Z,45.54
2022-08-07T01:44:04.177Z,45.55
2022-08-07T01:44:20.680Z,45.55
2022-08-07T01:44:36.669Z,45.53
2022-08-07T01:44:53.038Z,45.55
2022-08-07T01:45:10.076Z,45.55
2022-08-07T01:45:36.117Z,45.53
2022-08-07T01:45:40.283Z,45.55
2022-08-07T01:45:56.153Z,45.54
2022-08-07T01:46:12.457Z,45.54
2022-08-07T01:46:28.319Z,45.53
2022-08-07T01:46:44.742Z,45.54
2022-08-07T01:47:01.143Z,45.53
2022-08-07T01:48:17.892Z,45.53
2022-08-07T01:48:18.255Z,45.54
2022-08-07T01:48:20.602Z,45.53
2022-08-07T01:48:20.677Z,45.54
2022-08-07T01:48:30.349Z,45.53
2022-08-07T01:48:41.032Z,45.53
2022-08-07T01:48:51.836Z,45.53
2022-08-07T01:49:08.929Z,45.53
2022-08-07T01:49:24.425Z,45.55
2022-08-07T01:49:41.154Z,45.53
2022-08-07T01:49:56.030Z,45.53
2022-08-07T01:50:11.693Z,45.53
2022-08-07T01:50:28.913Z,45.53
2022-08-07T01:50:44.030Z,45.53
2022-08-07T01:51:24.719Z,45.55
2022-08-07T01:52:02.471Z,45.55
2022-08-07T01:52:03.239Z,45.53
2022-08-07T01:52:03.754Z,45.53
2022-08-07T01:52:04.994Z,45.53
2022-08-07T01:52:20.180Z,45.53
2022-08-07T01:52:36.365Z,45.53
2022-08-07T01:52:54.982Z,45.54
2022-08-07T01:53:08.726Z,45.53
2022-08-07T01:54:08.727Z,45.53
2022-08-07T01:54:09.385Z,45.53
2022-08-07T01:54:09.456Z,45.54
2022-08-07T01:54:21.906Z,45.53
2022-08-07T01:54:36.498Z,45.55
2022-08-07T01:54:45.829Z,45.55
2022-08-07T01:55:00.805Z,45.53
2022-08-07T01:55:22.191Z,45.52
2022-08-07T01:55:33.506Z,45.53
2022-08-07T01:55:48.481Z,45.54
2022-08-07T01:56:03.309Z,45.52
2022-08-07T01:56:20.341Z,45.53
2022-08-07T01:56:35.397Z,45.53
2022-08-07T01:56:52.347Z,45.55
2022-08-07T01:57:08.386Z,45.52
2022-08-07T01:57:25.589Z,45.53
2022-08-07T01:58:01.536Z,45.53
2022-08-07T01:58:05.774Z,45.53
2022-08-07T01:58:27.824Z,45.54
2022-08-07T01:58:29.464Z,45.54
2022-08-07T01:58:45.252Z,45.51
2022-08-07T01:59:00.740Z,45.54
2022-08-07T01:59:17.607Z,45.54
2022-08-07T01:59:33.334Z,45.53
2022-08-07T01:59:48.371Z,45.53
2022-08-07T02:00:03.768Z,45.53
2022-08-07T02:00:20.253Z,45.51
2022-08-07T02:00:45.260Z,45.51
2022-08-07T02:00:51.175Z,45.53
2022-08-07T02:01:10.027Z,45.54
2022-08-07T02:01:58.807Z,45.53
2022-08-07T02:02:01.879Z,45.53
2022-08-07T02:02:02.316Z,45.54
2022-08-07T02:02:12.557Z,45.54
2022-08-07T02:03:11.277Z,45.53
2022-08-07T02:03:18.486Z,45.55
2022-08-07T02:03:18.524Z,45.55
2022-08-07T02:03:21.646Z,45.54
2022-08-07T02:03:48.863Z,45.53
2022-08-07T02:03:50.230Z,45.51
2022-08-07T02:04:03.944Z,45.53
2022-08-07T02:04:19.855Z,45.53
2022-08-07T02:04:36.341Z,45.54
2022-08-07T02:04:55.929Z,45.54
2022-08-07T02:05:15.981Z,45.55
2022-08-07T02:05:43.445Z,45.55
2022-08-07T02:05:47.783Z,45.55
2022-08-07T02:05:59.934Z,45.53
2022-08-07T02:06:30.852Z,45.55
2022-08-07T02:06:31.893Z,45.55
2022-08-07T02:06:43.229Z,45.55
2022-08-07T02:07:00.650Z,45.54
2022-08-07T02:07:16.230Z,45.53
2022-08-07T02:07:36.176Z,45.53
2022-08-07T02:07:50.600Z,45.55
2022-08-07T02:08:04.372Z,45.55
2022-08-07T02:08:19.849Z,45.54
2022-08-07T02:08:36.945Z,45.55
2022-08-07T02:08:54.418Z,45.55
2022-08-07T02:09:07.235Z,45.55
2022-08-07T02:09:33.471Z,45.55
2022-08-07T02:09:53.065Z,45.56
2022-08-07T02:09:58.716Z,45.55
2022-08-07T02:10:11.287Z,45.53
2022-08-07T02:10:28.598Z,45.53
2022-08-07T02:10:43.918Z,45.55
2022-08-07T02:11:00.285Z,45.56
2022-08-07T02:11:31.073Z,45.55
2022-08-07T02:12:03.361Z,45.55
2022-08-07T02:12:04.853Z,45.53
2022-08-07T02:12:05.243Z,45.53
2022-08-07T02:12:19.812Z,45.53
2022-08-07T02:12:35.457Z,45.54
2022-08-07T02:12:53.843Z,45.55
2022-08-07T02:13:08.028Z,45.55
2022-08-07T02:13:57.713Z,45.55
2022-08-07T02:13:58.192Z,45.54
2022-08-07T02:14:02.343Z,45.55
2022-08-07T02:14:35.438Z,45.54
2022-08-07T02:14:36.666Z,45.55
2022-08-07T02:14:44.203Z,45.55
2022-08-07T02:14:59.152Z,45.55
2022-08-07T02:15:15.890Z,45.55
2022-08-07T02:15:31.766Z,45.55
2022-08-07T02:15:48.569Z,45.55
2022-08-07T02:16:04.328Z,45.57
2022-08-07T02:16:28.727Z,45.56
2022-08-07T02:16:35.813Z,45.56
2022-08-07T02:16:52.737Z,45.55
2022-08-07T02:17:08.022Z,45.55
2022-08-07T02:17:27.478Z,45.56
2022-08-07T02:17:40.774Z,45.55
2022-08-07T02:17:56.557Z,45.55
2022-08-07T02:18:11.994Z,45.54
2022-08-07T02:18:27.720Z,45.54
2022-08-07T02:18:47.124Z,45.55
2022-08-07T02:18:59.625Z,45.55
2022-08-07T02:20:05.628Z,45.57
2022-08-07T02:20:06.720Z,45.55
2022-08-07T02:20:07.219Z,45.55
2022-08-07T02:20:09.520Z,45.55
2022-08-07T02:20:23.715Z,45.55
2022-08-07T02:20:35.902Z,45.55
2022-08-07T02:20:55.818Z,45.54
2022-08-07T02:21:08.121Z,45.55
2022-08-07T02:21:24.149Z,45.54
2022-08-07T02:21:55.871Z,45.55
2022-08-07T02:21:58.866Z,45.55
2022-08-07T02:22:13.603Z,45.55
2022-08-07T02:22:27.978Z,45.55
2022-08-07T02:22:43.947Z,45.55
2022-08-07T02:23:00.208Z,45.55
2022-08-07T02:23:15.679Z,45.55
2022-08-07T02:23:35.782Z,45.54
2022-08-07T02:23:47.384Z,45.55
2022-08-07T02:24:03.989Z,45.55
2022-08-07T02:24:19.397Z,45.56
2022-08-07T02:24:36.882Z,45.55
2022-08-07T02:24:52.888Z,45.56
2022-08-07T02:25:13.866Z,45.55
2022-08-07T02:25:32.176Z,45.57
2022-08-07T02:26:31.439Z,45.58
2022-08-07T02:26:31.598Z,45.56
2022-08-07T02:26:32.396Z,45.57
2022-08-07T02:26:32.617Z,45.55
2022-08-07T02:26:43.313Z,45.55
2022-08-07T02:27:01.192Z,45.56
2022-08-07T02:27:15.724Z,45.55
2022-08-07T02:27:34.331Z,45.57
2022-08-07T02:27:52.143Z,45.57
2022-08-07T02:28:04.863Z,45.56
2022-08-07T02:28:25.449Z,45.57
2022-08-07T02:28:37.880Z,45.57
2022-08-07T02:28:52.751Z,45.57
2022-08-07T02:29:07.991Z,45.55
2022-08-07T02:29:24.791Z,45.55
2022-08-07T02:29:48.522Z,45.55
2022-08-07T02:29:56.611Z,45.57
2022-08-07T02:30:12.434Z,45.57
2022-08-07T02:30:29.110Z,45.58
2022-08-07T02:30:44.248Z,45.56
2022-08-07T02:30:59.898Z,45.55
2022-08-07T02:31:28.687Z,45.56
2022-08-07T02:31:32.753Z,45.55
2022-08-07T02:31:48.595Z,45.55
2022-08-07T02:32:06.247Z,45.56
2022-08-07T02:32:23.170Z,45.57
2022-08-07T02:32:36.253Z,45.56
2022-08-07T02:33:01.002Z,45.55
2022-08-07T02:33:10.442Z,45.57
2022-08-07T02:33:23.470Z,45.57
2022-08-07T02:33:57.290Z,45.55
2022-08-07T02:34:03.038Z,45.57
2022-08-07T02:34:17.952Z,45.55
2022-08-07T02:34:30.469Z,45.57
2022-08-07T02:34:49.006Z,45.57
2022-08-07T02:35:00.819Z,45.57
2022-08-07T02:35:20.411Z,45.57
2022-08-07T02:36:28.205Z,45.56
2022-08-07T02:36:30.136Z,45.55
2022-08-07T02:36:30.256Z,45.56
2022-08-07T02:36:30.728Z,45.57
2022-08-07T02:36:37.009Z,45.57
2022-08-07T02:36:51.321Z,45.56
2022-08-07T02:37:08.432Z,45.57
2022-08-07T02:37:24.034Z,45.57
2022-08-07T02:37:43.823Z,45.56
2022-08-07T02:37:56.217Z,45.55
2022-08-07T02:38:16.578Z,45.57
2022-08-07T02:38:31.951Z,45.58
2022-08-07T02:38:51.016Z,45.56
2022-08-07T02:39:00.133Z,45.55
2022-08-07T02:39:17.014Z,45.57
2022-08-07T02:39:43.267Z,45.6
2022-08-07T02:40:11.946Z,45.57
2022-08-07T02:40:30.575Z,45.57
2022-08-07T02:40:30.814Z,45.58
2022-08-07T02:40:36.837Z,45.58
2022-08-07T02:40:56.086Z,45.58
2022-08-07T02:41:08.426Z,45.57
2022-08-07T02:41:24.186Z,45.57
2022-08-07T02:41:39.076Z,45.57
2022-08-07T02:41:56.545Z,45.58
2022-08-07T02:42:16.201Z,45.56
2022-08-07T02:42:27.882Z,45.57
2022-08-07T02:42:44.691Z,45.55
2022-08-07T02:43:00.783Z,45.58
2022-08-07T02:43:16.302Z,45.57
2022-08-07T02:43:32.307Z,45.58
2022-08-07T02:43:49.107Z,45.57
2022-08-07T02:44:04.971Z,45.57
2022-08-07T02:44:21.756Z,45.57
2022-08-07T02:44:36.525Z,45.57
2022-08-07T02:44:51.952Z,45.56
2022-08-07T02:45:58.378Z,45.58
2022-08-07T02:45:58.747Z,45.58
2022-08-07T02:45:58.956Z,45.56
2022-08-07T02:45:59.408Z,45.58
2022-08-07T02:46:13.460Z,45.57
2022-08-07T02:46:28.785Z,45.57
2022-08-07T02:46:46.540Z,45.56
2022-08-07T02:46:59.789Z,45.58
2022-08-07T02:47:19.183Z,45.58
2022-08-07T02:47:44.997Z,45.58
2022-08-07T02:47:49.786Z,45.57
2022-08-07T02:48:03.587Z,45.57
2022-08-07T02:48:20.345Z,45.58
2022-08-07T02:48:36.210Z,45.57
2022-08-07T02:48:54.928Z,45.57
2022-08-07T02:49:08.278Z,45.57
2022-08-07T02:49:28.897Z,45.58
2022-08-07T02:49:58.142Z,45.58
2022-08-07T02:49:59.754Z,45.59
2022-08-07T02:50:12.088Z,45.57
2022-08-07T02:50:30.905Z,45.58
2022-08-07T02:50:43.795Z,45.58
2022-08-07T02:51:00.086Z,45.59
2022-08-07T02:51:42.051Z,45.59
2022-08-07T02:51:42.334Z,45.59
2022-08-07T02:51:51.901Z,45.58
2022-08-07T02:52:04.399Z,45.57
2022-08-07T02:52:21.514Z,45.57
2022-08-07T02:52:36.048Z,45.57
2022-08-07T02:52:51.530Z,45.57
2022-08-07T02:53:10.868Z,45.57
2022-08-07T02:53:23.293Z,45.58
2022-08-07T02:53:40.402Z,45.58
2022-08-07T02:53:55.922Z,45.58
2022-08-07T02:54:13.216Z,45.58
2022-08-07T02:54:27.855Z,45.58
2022-08-07T02:54:45.390Z,45.58
2022-08-07T02:55:00.368Z,45.57
2022-08-07T02:55:28.107Z,45.58
2022-08-07T02:56:02.246Z,45.58
2022-08-07T02:56:03.082Z,45.57
2022-08-07T02:56:11.248Z,45.57
2022-08-07T02:56:21.754Z,45.57
2022-08-07T02:56:36.471Z,45.58
2022-08-07T02:56:52.247Z,45.56
2022-08-07T02:57:08.675Z,45.57
2022-08-07T02:57:23.712Z,45.58
2022-08-07T02:57:40.372Z,45.57
2022-08-07T02:57:56.021Z,45.58
2022-08-07T02:58:11.238Z,45.57
2022-08-07T02:58:28.474Z,45.58
2022-08-07T02:58:47.019Z,45.58
2022-08-07T02:59:00.317Z,45.57
2022-08-07T02:59:15.217Z,45.57
2022-08-07T02:59:32.518Z,45.57
2022-08-07T02:59:54.839Z,45.58
2022-08-07T03:00:04.879Z,45.59
2022-08-07T03:00:20.103Z,45.58
2022-08-07T03:00:35.338Z,45.58
2022-08-07T03:00:53.892Z,45.6
2022-08-07T03:01:15.953Z,45.59
2022-08-07T03:01:35.443Z,45.57
2022-08-07T03:01:39.635Z,45.58
2022-08-07T03:01:56.189Z,45.56
2022-08-07T03:02:13.568Z,45.58
2022-08-07T03:02:28.888Z,45.59
2022-08-07T03:02:54.021Z,45.6
2022-08-07T03:03:06.094Z,45.6
2022-08-07T03:03:21.077Z,45.58
2022-08-07T03:03:49.117Z,45.58
2022-08-07T03:03:50.004Z,45.58
2022-08-07T03:04:07.147Z,45.59
2022-08-07T03:04:20.651Z,45.59
2022-08-07T03:04:35.502Z,45.58
2022-08-07T03:04:53.756Z,45.6
2022-08-07T03:05:07.668Z,45.58
2022-08-07T03:05:24.473Z,45.57
2022-08-07T03:05:40.271Z,45.57
2022-08-07T03:05:56.330Z,45.59
2022-08-07T03:06:16.376Z,45.58
2022-08-07T03:06:34.743Z,45.59
2022-08-07T03:06:45.804Z,45.58
2022-08-07T03:07:07.060Z,45.58
2022-08-07T03:07:18.681Z,45.61
2022-08-07T03:08:04.841Z,45.59
2022-08-07T03:08:07.135Z,45.58
2022-08-07T03:08:07.454Z,45.59
2022-08-07T03:08:26.790Z,45.6
2022-08-07T03:08:36.179Z,45.59
2022-08-07T03:08:51.496Z,45.58
2022-08-07T03:09:11.279Z,45.6
2022-08-07T03:09:43.609Z,45.59
2022-08-07T03:09:44.534Z,45.59
2022-08-07T03:09:56.039Z,45.59
2022-08-07T03:10:14.313Z,45.58
2022-08-07T03:10:28.180Z,45.58
2022-08-07T03:10:46.744Z,45.58
2022-08-07T03:10:59.713Z,45.59
2022-08-07T03:11:17.881Z,45.59
2022-08-07T03:11:33.008Z,45.59
2022-08-07T03:11:52.249Z,45.58
2022-08-07T03:12:04.907Z,45.6
2022-08-07T03:12:22.309Z,45.6
2022-08-07T03:12:36.033Z,45.61
2022-08-07T03:12:51.964Z,45.59
2022-08-07T03:13:08.766Z,45.59
2022-08-07T03:13:25.250Z,45.59
2022-08-07T03:13:49.378Z,45.6
2022-08-07T03:13:57.672Z,45.59
2022-08-07T03:14:11.794Z,45.6
2022-08-07T03:14:28.423Z,45.59
2022-08-07T03:14:43.266Z,45.58
2022-08-07T03:15:02.422Z,45.6
2022-08-07T03:15:16.585Z,45.6
2022-08-07T03:15:47.846Z,45.59
2022-08-07T03:15:56.395Z,45.59
2022-08-07T03:16:04.328Z,45.59
2022-08-07T03:16:19.710Z,45.58
2022-08-07T03:16:36.668Z,45.58
2022-08-07T03:16:52.573Z,45.59
2022-08-07T03:17:08.732Z,45.59
2022-08-07T03:17:24.341Z,45.59
2022-08-07T03:17:53.035Z,45.6
2022-08-07T03:17:56.601Z,45.59
2022-08-07T03:18:11.668Z,45.59
2022-08-07T03:18:36.125Z,45.59
2022-08-07T03:18:44.149Z,45.58
2022-08-07T03:19:00.758Z,45.6
2022-08-07T03:19:15.649Z,45.6
2022-08-07T03:19:37.086Z,45.59
2022-08-07T03:19:52.916Z,45.59
2022-08-07T03:20:03.428Z,45.6
2022-08-07T03:20:19.922Z,45.59
2022-08-07T03:20:35.778Z,45.59
2022-08-07T03:20:52.542Z,45.58
2022-08-07T03:21:11.441Z,45.58
2022-08-07T03:21:24.794Z,45.6
2022-08-07T03:21:50.633Z,45.62
2022-08-07T03:21:56.528Z,45.6
2022-08-07T03:22:18.751Z,45.59
2022-08-07T03:22:30.337Z,45.6
2022-08-07T03:22:43.974Z,45.6
2022-08-07T03:23:00.705Z,45.61
2022-08-07T03:23:19.028Z,45.59
2022-08-07T03:23:34.182Z,45.6
2022-08-07T03:24:19.661Z,45.59
2022-08-07T03:24:19.719Z,45.6
2022-08-07T03:24:27.379Z,45.58
2022-08-07T03:24:36.759Z,45.59
2022-08-07T03:24:51.206Z,45.6
2022-08-07T03:25:10.396Z,45.61
2022-08-07T03:25:23.309Z,45.6
2022-08-07T03:25:41.646Z,45.6
2022-08-07T03:25:58.386Z,45.6
2022-08-07T03:26:15.542Z,45.6
2022-08-07T03:26:27.501Z,45.59
2022-08-07T03:26:58.522Z,45.6
2022-08-07T03:27:00.204Z,45.61